sensor_id;sensor_type;location;lat;lon;timestamp;P1;durP1;ratioP1;P2;durP2;ratioP2
79583;SDS011;69053;57.338;18.700;2023-08-07T00:00:13;22.02;;;10.25;;
79583;SDS011;69053;57.338;18.700;2023-08-07T00:03:17;27.30;;;11.00;;
79583;SDS011;69053;57.338;18.700;2023-08-07T00:06:18;23.15;;;9.30;;
79583;SDS011;69053;57.338;18.700;2023-08-07T00:12:22;20.95;;;10.23;;
79583;SDS011;69053;57.338;18.700;2023-08-07T00:15:39;25.95;;;11.13;;
79583;SDS011;69053;57.338;18.700;2023-08-07T00:18:40;19.70;;;12.57;;
79583;SDS011;69053;57.338;18.700;2023-08-07T00:24:46;22.58;;;13.07;;
79583;SDS011;69053;57.338;18.700;2023-08-07T00:27:48;22.55;;;13.52;;
79583;SDS011;69053;57.338;18.700;2023-08-07T00:30:54;22.33;;;12.00;;
79583;SDS011;69053;57.338;18.700;2023-08-07T00:33:57;26.33;;;12.75;;
79583;SDS011;69053;57.338;18.700;2023-08-07T00:36:58;21.77;;;13.80;;
79583;SDS011;69053;57.338;18.700;2023-08-07T00:39:59;25.00;;;13.77;;
79583;SDS011;69053;57.338;18.700;2023-08-07T00:43:00;24.77;;;14.38;;
79583;SDS011;69053;57.338;18.700;2023-08-07T00:46:01;24.83;;;13.70;;
79583;SDS011;69053;57.338;18.700;2023-08-07T00:49:02;23.50;;;14.07;;
79583;SDS011;69053;57.338;18.700;2023-08-07T00:52:04;25.02;;;14.30;;
79583;SDS011;69053;57.338;18.700;2023-08-07T00:55:05;22.48;;;13.45;;
79583;SDS011;69053;57.338;18.700;2023-08-07T00:58:07;26.08;;;13.98;;
79583;SDS011;69053;57.338;18.700;2023-08-07T01:01:07;23.40;;;14.70;;
79583;SDS011;69053;57.338;18.700;2023-08-07T01:04:08;20.70;;;13.00;;
79583;SDS011;69053;57.338;18.700;2023-08-07T01:07:21;20.90;;;13.30;;
79583;SDS011;69053;57.338;18.700;2023-08-07T01:10:24;18.48;;;11.77;;
79583;SDS011;69053;57.338;18.700;2023-08-07T01:20:48;18.58;;;12.10;;
79583;SDS011;69053;57.338;18.700;2023-08-07T01:23:52;19.33;;;13.05;;
79583;SDS011;69053;57.338;18.700;2023-08-07T01:26:57;15.32;;;12.05;;
79583;SDS011;69053;57.338;18.700;2023-08-07T01:33:32;18.75;;;11.90;;
79583;SDS011;69053;57.338;18.700;2023-08-07T01:36:59;19.38;;;12.38;;
79583;SDS011;69053;57.338;18.700;2023-08-07T01:40:06;20.73;;;13.07;;
79583;SDS011;69053;57.338;18.700;2023-08-07T01:43:40;18.98;;;12.82;;
79583;SDS011;69053;57.338;18.700;2023-08-07T01:46:55;18.70;;;12.35;;
79583;SDS011;69053;57.338;18.700;2023-08-07T01:50:00;16.48;;;12.57;;
79583;SDS011;69053;57.338;18.700;2023-08-07T01:53:38;17.10;;;11.90;;
79583;SDS011;69053;57.338;18.700;2023-08-07T01:56:38;21.90;;;13.65;;
79583;SDS011;69053;57.338;18.700;2023-08-07T01:59:44;23.13;;;12.93;;
79583;SDS011;69053;57.338;18.700;2023-08-07T02:02:47;24.70;;;13.13;;
79583;SDS011;69053;57.338;18.700;2023-08-07T02:05:51;18.80;;;12.80;;
79583;SDS011;69053;57.338;18.700;2023-08-07T02:08:51;17.98;;;13.55;;
79583;SDS011;69053;57.338;18.700;2023-08-07T02:11:52;21.45;;;13.88;;
79583;SDS011;69053;57.338;18.700;2023-08-07T02:14:55;22.13;;;13.82;;
79583;SDS011;69053;57.338;18.700;2023-08-07T02:17:57;21.95;;;13.95;;
79583;SDS011;69053;57.338;18.700;2023-08-07T02:20:58;22.20;;;14.15;;
79583;SDS011;69053;57.338;18.700;2023-08-07T02:23:58;21.48;;;13.27;;
79583;SDS011;69053;57.338;18.700;2023-08-07T02:26:59;21.17;;;14.57;;
79583;SDS011;69053;57.338;18.700;2023-08-07T02:30:00;25.27;;;16.00;;
79583;SDS011;69053;57.338;18.700;2023-08-07T02:33:03;24.83;;;15.65;;
79583;SDS011;69053;57.338;18.700;2023-08-07T02:36:04;22.60;;;14.00;;
79583;SDS011;69053;57.338;18.700;2023-08-07T02:39:05;26.30;;;16.42;;
79583;SDS011;69053;57.338;18.700;2023-08-07T02:42:06;22.65;;;15.68;;
79583;SDS011;69053;57.338;18.700;2023-08-07T02:45:07;21.73;;;15.13;;
79583;SDS011;69053;57.338;18.700;2023-08-07T02:48:11;24.33;;;16.10;;
79583;SDS011;69053;57.338;18.700;2023-08-07T02:51:12;20.45;;;15.07;;
79583;SDS011;69053;57.338;18.700;2023-08-07T02:54:13;21.90;;;14.82;;
79583;SDS011;69053;57.338;18.700;2023-08-07T02:57:13;20.88;;;15.82;;
79583;SDS011;69053;57.338;18.700;2023-08-07T03:00:14;22.65;;;15.20;;
79583;SDS011;69053;57.338;18.700;2023-08-07T03:03:14;20.65;;;14.82;;
79583;SDS011;69053;57.338;18.700;2023-08-07T03:06:15;22.40;;;14.70;;
79583;SDS011;69053;57.338;18.700;2023-08-07T03:09:16;22.33;;;14.75;;
79583;SDS011;69053;57.338;18.700;2023-08-07T03:12:16;20.33;;;13.32;;
79583;SDS011;69053;57.338;18.700;2023-08-07T03:15:17;20.05;;;15.05;;
79583;SDS011;69053;57.338;18.700;2023-08-07T03:18:19;18.90;;;14.00;;
79583;SDS011;69053;57.338;18.700;2023-08-07T03:21:19;18.92;;;14.02;;
79583;SDS011;69053;57.338;18.700;2023-08-07T03:24:20;20.55;;;14.95;;
79583;SDS011;69053;57.338;18.700;2023-08-07T03:27:22;20.70;;;14.15;;
79583;SDS011;69053;57.338;18.700;2023-08-07T03:30:23;19.38;;;13.95;;
79583;SDS011;69053;57.338;18.700;2023-08-07T03:33:23;20.05;;;13.98;;
79583;SDS011;69053;57.338;18.700;2023-08-07T03:36:33;19.23;;;13.02;;
79583;SDS011;69053;57.338;18.700;2023-08-07T03:39:51;16.65;;;14.07;;
79583;SDS011;69053;57.338;18.700;2023-08-07T03:42:53;21.52;;;15.05;;
79583;SDS011;69053;57.338;18.700;2023-08-07T03:45:58;21.65;;;14.02;;
79583;SDS011;69053;57.338;18.700;2023-08-07T03:49:14;17.05;;;12.85;;
79583;SDS011;69053;57.338;18.700;2023-08-07T03:52:30;19.55;;;14.40;;
79583;SDS011;69053;57.338;18.700;2023-08-07T03:55:37;16.63;;;13.15;;
79583;SDS011;69053;57.338;18.700;2023-08-07T03:58:37;19.90;;;13.80;;
79583;SDS011;69053;57.338;18.700;2023-08-07T04:01:38;17.95;;;13.43;;
79583;SDS011;69053;57.338;18.700;2023-08-07T04:04:47;15.23;;;12.10;;
79583;SDS011;69053;57.338;18.700;2023-08-07T04:08:00;14.73;;;12.40;;
79583;SDS011;69053;57.338;18.700;2023-08-07T04:11:11;13.60;;;11.98;;
79583;SDS011;69053;57.338;18.700;2023-08-07T04:14:36;14.30;;;12.20;;
79583;SDS011;69053;57.338;18.700;2023-08-07T04:20:52;16.45;;;11.50;;
79583;SDS011;69053;57.338;18.700;2023-08-07T04:23:58;14.68;;;12.07;;
79583;SDS011;69053;57.338;18.700;2023-08-07T04:30:01;14.85;;;10.77;;
79583;SDS011;69053;57.338;18.700;2023-08-07T04:33:02;14.77;;;10.82;;
79583;SDS011;69053;57.338;18.700;2023-08-07T04:36:09;14.88;;;10.57;;
79583;SDS011;69053;57.338;18.700;2023-08-07T04:39:35;13.95;;;10.48;;
79583;SDS011;69053;57.338;18.700;2023-08-07T04:42:36;12.85;;;10.55;;
79583;SDS011;69053;57.338;18.700;2023-08-07T04:45:42;13.55;;;11.43;;
79583;SDS011;69053;57.338;18.700;2023-08-07T04:48:50;13.30;;;11.18;;
79583;SDS011;69053;57.338;18.700;2023-08-07T04:52:10;12.82;;;11.38;;
79583;SDS011;69053;57.338;18.700;2023-08-07T04:55:25;13.25;;;11.00;;
79583;SDS011;69053;57.338;18.700;2023-08-07T04:58:28;15.25;;;11.13;;
79583;SDS011;69053;57.338;18.700;2023-08-07T05:01:30;14.35;;;11.50;;
79583;SDS011;69053;57.338;18.700;2023-08-07T05:04:31;15.38;;;11.00;;
79583;SDS011;69053;57.338;18.700;2023-08-07T05:07:32;12.88;;;10.48;;
79583;SDS011;69053;57.338;18.700;2023-08-07T05:10:40;15.02;;;11.23;;
79583;SDS011;69053;57.338;18.700;2023-08-07T05:14:02;18.38;;;10.57;;
79583;SDS011;69053;57.338;18.700;2023-08-07T05:17:45;13.93;;;10.45;;
79583;SDS011;69053;57.338;18.700;2023-08-07T05:20:48;13.07;;;9.98;;
79583;SDS011;69053;57.338;18.700;2023-08-07T05:23:51;13.73;;;9.98;;
79583;SDS011;69053;57.338;18.700;2023-08-07T05:26:55;13.52;;;10.43;;
79583;SDS011;69053;57.338;18.700;2023-08-07T05:29:59;12.38;;;10.65;;
79583;SDS011;69053;57.338;18.700;2023-08-07T05:33:02;13.07;;;11.10;;
79583;SDS011;69053;57.338;18.700;2023-08-07T05:36:03;13.23;;;10.63;;
79583;SDS011;69053;57.338;18.700;2023-08-07T05:39:09;15.35;;;10.57;;
79583;SDS011;69053;57.338;18.700;2023-08-07T05:45:15;14.30;;;9.45;;
79583;SDS011;69053;57.338;18.700;2023-08-07T06:18:52;10.98;;;8.90;;
79583;SDS011;69053;57.338;18.700;2023-08-07T06:53:32;11.80;;;6.82;;
79583;SDS011;69053;57.338;18.700;2023-08-07T06:56:42;12.35;;;7.47;;
79583;SDS011;69053;57.338;18.700;2023-08-07T07:00:05;12.48;;;7.72;;
79583;SDS011;69053;57.338;18.700;2023-08-07T07:07:05;10.70;;;6.85;;
79583;SDS011;69053;57.338;18.700;2023-08-07T07:10:15;12.98;;;7.45;;
79583;SDS011;69053;57.338;18.700;2023-08-07T07:13:41;11.23;;;6.47;;
79583;SDS011;69053;57.338;18.700;2023-08-07T07:17:02;7.93;;;5.90;;
79583;SDS011;69053;57.338;18.700;2023-08-07T07:20:37;8.35;;;5.20;;
79583;SDS011;69053;57.338;18.700;2023-08-07T07:27:39;8.30;;;5.05;;
79583;SDS011;69053;57.338;18.700;2023-08-07T07:31:42;7.63;;;5.00;;
79583;SDS011;69053;57.338;18.700;2023-08-07T08:26:33;2.63;;;1.10;;
79583;SDS011;69053;57.338;18.700;2023-08-07T08:32:52;3.63;;;1.40;;
79583;SDS011;69053;57.338;18.700;2023-08-07T08:35:55;3.25;;;1.23;;
79583;SDS011;69053;57.338;18.700;2023-08-07T08:39:25;2.35;;;1.15;;
79583;SDS011;69053;57.338;18.700;2023-08-07T08:42:41;1.73;;;1.00;;
79583;SDS011;69053;57.338;18.700;2023-08-07T08:49:12;1.75;;;0.77;;
79583;SDS011;69053;57.338;18.700;2023-08-07T08:52:23;2.13;;;0.90;;
79583;SDS011;69053;57.338;18.700;2023-08-07T08:56:13;2.42;;;0.60;;
79583;SDS011;69053;57.338;18.700;2023-08-07T08:59:14;2.83;;;1.10;;
79583;SDS011;69053;57.338;18.700;2023-08-07T09:02:18;2.05;;;0.80;;
79583;SDS011;69053;57.338;18.700;2023-08-07T09:05:21;1.77;;;1.25;;
79583;SDS011;69053;57.338;18.700;2023-08-07T09:08:22;2.17;;;1.20;;
79583;SDS011;69053;57.338;18.700;2023-08-07T09:11:25;1.83;;;0.90;;
79583;SDS011;69053;57.338;18.700;2023-08-07T09:14:28;2.88;;;0.80;;
79583;SDS011;69053;57.338;18.700;2023-08-07T09:17:33;2.33;;;1.10;;
79583;SDS011;69053;57.338;18.700;2023-08-07T09:20:44;2.78;;;1.35;;
79583;SDS011;69053;57.338;18.700;2023-08-07T09:23:45;2.85;;;1.00;;
79583;SDS011;69053;57.338;18.700;2023-08-07T09:26:45;2.60;;;1.10;;
79583;SDS011;69053;57.338;18.700;2023-08-07T09:29:46;1.10;;;1.00;;
79583;SDS011;69053;57.338;18.700;2023-08-07T09:32:49;1.80;;;0.90;;
79583;SDS011;69053;57.338;18.700;2023-08-07T09:35:49;1.95;;;1.00;;
79583;SDS011;69053;57.338;18.700;2023-08-07T09:38:50;4.40;;;1.50;;
79583;SDS011;69053;57.338;18.700;2023-08-07T09:41:51;3.22;;;1.10;;
79583;SDS011;69053;57.338;18.700;2023-08-07T09:44:52;2.05;;;1.05;;
79583;SDS011;69053;57.338;18.700;2023-08-07T09:47:59;2.05;;;1.02;;
79583;SDS011;69053;57.338;18.700;2023-08-07T09:51:03;1.77;;;0.80;;
79583;SDS011;69053;57.338;18.700;2023-08-07T09:54:04;1.60;;;0.95;;
79583;SDS011;69053;57.338;18.700;2023-08-07T09:57:05;2.95;;;0.65;;
79583;SDS011;69053;57.338;18.700;2023-08-07T10:00:07;1.33;;;0.40;;
79583;SDS011;69053;57.338;18.700;2023-08-07T10:03:11;0.80;;;0.32;;
79583;SDS011;69053;57.338;18.700;2023-08-07T10:06:17;0.50;;;0.20;;
79583;SDS011;69053;57.338;18.700;2023-08-07T10:09:19;1.55;;;0.52;;
79583;SDS011;69053;57.338;18.700;2023-08-07T10:12:22;2.85;;;0.40;;
79583;SDS011;69053;57.338;18.700;2023-08-07T10:15:23;1.35;;;0.90;;
79583;SDS011;69053;57.338;18.700;2023-08-07T10:18:24;1.15;;;0.20;;
79583;SDS011;69053;57.338;18.700;2023-08-07T10:21:24;1.00;;;0.13;;
79583;SDS011;69053;57.338;18.700;2023-08-07T10:24:26;0.32;;;0.20;;
79583;SDS011;69053;57.338;18.700;2023-08-07T10:27:28;0.73;;;0.30;;
79583;SDS011;69053;57.338;18.700;2023-08-07T10:30:32;1.23;;;0.40;;
79583;SDS011;69053;57.338;18.700;2023-08-07T10:33:34;1.42;;;0.73;;
79583;SDS011;69053;57.338;18.700;2023-08-07T10:36:35;2.58;;;0.30;;
79583;SDS011;69053;57.338;18.700;2023-08-07T10:39:46;2.28;;;0.50;;
79583;SDS011;69053;57.338;18.700;2023-08-07T10:46:14;1.00;;;0.30;;
79583;SDS011;69053;57.338;18.700;2023-08-07T10:52:38;0.73;;;0.20;;
79583;SDS011;69053;57.338;18.700;2023-08-07T10:55:43;1.33;;;0.15;;
79583;SDS011;69053;57.338;18.700;2023-08-07T10:58:50;1.33;;;0.25;;
79583;SDS011;69053;57.338;18.700;2023-08-07T11:01:53;0.60;;;0.28;;
79583;SDS011;69053;57.338;18.700;2023-08-07T11:04:54;1.35;;;0.40;;
79583;SDS011;69053;57.338;18.700;2023-08-07T11:07:56;1.40;;;0.30;;
79583;SDS011;69053;57.338;18.700;2023-08-07T11:11:03;1.27;;;0.50;;
79583;SDS011;69053;57.338;18.700;2023-08-07T11:17:15;4.03;;;0.77;;
79583;SDS011;69053;57.338;18.700;2023-08-07T11:20:16;1.17;;;0.30;;
79583;SDS011;69053;57.338;18.700;2023-08-07T11:23:25;1.02;;;0.40;;
79583;SDS011;69053;57.338;18.700;2023-08-07T11:26:27;1.42;;;0.40;;
79583;SDS011;69053;57.338;18.700;2023-08-07T11:29:29;1.90;;;0.30;;
79583;SDS011;69053;57.338;18.700;2023-08-07T11:32:40;1.02;;;0.28;;
79583;SDS011;69053;57.338;18.700;2023-08-07T11:35:44;0.95;;;0.30;;
79583;SDS011;69053;57.338;18.700;2023-08-07T11:38:45;1.05;;;0.43;;
79583;SDS011;69053;57.338;18.700;2023-08-07T11:41:50;1.35;;;0.22;;
79583;SDS011;69053;57.338;18.700;2023-08-07T11:44:52;0.40;;;0.30;;
79583;SDS011;69053;57.338;18.700;2023-08-07T11:47:53;1.75;;;0.85;;
79583;SDS011;69053;57.338;18.700;2023-08-07T11:50:56;2.60;;;0.68;;
79583;SDS011;69053;57.338;18.700;2023-08-07T11:54:00;0.45;;;0.20;;
79583;SDS011;69053;57.338;18.700;2023-08-07T11:57:02;1.58;;;0.45;;
79583;SDS011;69053;57.338;18.700;2023-08-07T12:00:19;0.73;;;0.45;;
79583;SDS011;69053;57.338;18.700;2023-08-07T12:03:34;1.80;;;0.60;;
79583;SDS011;69053;57.338;18.700;2023-08-07T12:06:52;0.70;;;0.40;;
79583;SDS011;69053;57.338;18.700;2023-08-07T12:09:54;1.63;;;0.50;;
79583;SDS011;69053;57.338;18.700;2023-08-07T12:13:00;1.95;;;0.60;;
79583;SDS011;69053;57.338;18.700;2023-08-07T12:16:04;1.63;;;0.50;;
79583;SDS011;69053;57.338;18.700;2023-08-07T12:19:06;2.00;;;0.40;;
79583;SDS011;69053;57.338;18.700;2023-08-07T12:22:09;1.00;;;0.40;;
79583;SDS011;69053;57.338;18.700;2023-08-07T12:25:11;1.35;;;0.50;;
79583;SDS011;69053;57.338;18.700;2023-08-07T12:28:14;0.95;;;0.30;;
79583;SDS011;69053;57.338;18.700;2023-08-07T12:31:17;2.20;;;0.32;;
79583;SDS011;69053;57.338;18.700;2023-08-07T12:34:17;2.40;;;0.57;;
79583;SDS011;69053;57.338;18.700;2023-08-07T12:37:18;0.88;;;0.30;;
79583;SDS011;69053;57.338;18.700;2023-08-07T12:40:19;1.65;;;0.43;;
79583;SDS011;69053;57.338;18.700;2023-08-07T12:43:21;1.00;;;0.20;;
79583;SDS011;69053;57.338;18.700;2023-08-07T12:46:24;0.95;;;0.30;;
79583;SDS011;69053;57.338;18.700;2023-08-07T12:49:25;0.32;;;0.30;;
79583;SDS011;69053;57.338;18.700;2023-08-07T12:52:26;0.65;;;0.30;;
79583;SDS011;69053;57.338;18.700;2023-08-07T12:55:26;1.10;;;0.40;;
79583;SDS011;69053;57.338;18.700;2023-08-07T12:58:30;1.45;;;0.40;;
79583;SDS011;69053;57.338;18.700;2023-08-07T13:01:34;1.75;;;0.47;;
79583;SDS011;69053;57.338;18.700;2023-08-07T13:04:37;2.35;;;0.75;;
79583;SDS011;69053;57.338;18.700;2023-08-07T13:07:42;0.32;;;0.20;;
79583;SDS011;69053;57.338;18.700;2023-08-07T13:10:53;0.77;;;0.20;;
79583;SDS011;69053;57.338;18.700;2023-08-07T13:14:03;0.75;;;0.50;;
79583;SDS011;69053;57.338;18.700;2023-08-07T13:17:07;1.60;;;0.20;;
79583;SDS011;69053;57.338;18.700;2023-08-07T13:20:13;1.38;;;0.20;;
79583;SDS011;69053;57.338;18.700;2023-08-07T13:23:17;0.98;;;0.30;;
79583;SDS011;69053;57.338;18.700;2023-08-07T13:26:21;1.35;;;0.30;;
79583;SDS011;69053;57.338;18.700;2023-08-07T13:29:21;0.75;;;0.25;;
79583;SDS011;69053;57.338;18.700;2023-08-07T13:32:33;1.95;;;0.30;;
79583;SDS011;69053;57.338;18.700;2023-08-07T13:35:34;1.17;;;0.13;;
79583;SDS011;69053;57.338;18.700;2023-08-07T13:42:02;1.30;;;0.50;;
79583;SDS011;69053;57.338;18.700;2023-08-07T13:48:27;2.30;;;0.65;;
79583;SDS011;69053;57.338;18.700;2023-08-07T13:51:28;1.92;;;0.40;;
79583;SDS011;69053;57.338;18.700;2023-08-07T13:54:28;0.68;;;0.30;;
79583;SDS011;69053;57.338;18.700;2023-08-07T13:57:37;1.88;;;0.75;;
79583;SDS011;69053;57.338;18.700;2023-08-07T14:00:39;4.25;;;0.77;;
79583;SDS011;69053;57.338;18.700;2023-08-07T14:03:46;2.58;;;0.60;;
79583;SDS011;69053;57.338;18.700;2023-08-07T14:06:49;2.03;;;0.50;;
79583;SDS011;69053;57.338;18.700;2023-08-07T14:09:56;2.28;;;0.40;;
79583;SDS011;69053;57.338;18.700;2023-08-07T14:13:03;1.08;;;0.40;;
79583;SDS011;69053;57.338;18.700;2023-08-07T14:16:06;1.92;;;0.40;;
79583;SDS011;69053;57.338;18.700;2023-08-07T14:19:15;2.35;;;0.60;;
79583;SDS011;69053;57.338;18.700;2023-08-07T14:22:34;2.33;;;0.60;;
79583;SDS011;69053;57.338;18.700;2023-08-07T14:25:54;2.28;;;0.88;;
79583;SDS011;69053;57.338;18.700;2023-08-07T14:28:55;3.85;;;1.35;;
79583;SDS011;69053;57.338;18.700;2023-08-07T14:32:04;1.02;;;0.30;;
79583;SDS011;69053;57.338;18.700;2023-08-07T14:35:19;2.83;;;0.77;;
79583;SDS011;69053;57.338;18.700;2023-08-07T14:38:19;2.45;;;0.55;;
79583;SDS011;69053;57.338;18.700;2023-08-07T14:41:33;1.55;;;0.30;;
79583;SDS011;69053;57.338;18.700;2023-08-07T14:44:42;3.60;;;0.60;;
79583;SDS011;69053;57.338;18.700;2023-08-07T14:48:04;2.42;;;0.40;;
79583;SDS011;69053;57.338;18.700;2023-08-07T14:51:12;2.30;;;0.60;;
79583;SDS011;69053;57.338;18.700;2023-08-07T14:54:21;1.80;;;0.60;;
79583;SDS011;69053;57.338;18.700;2023-08-07T14:57:24;2.75;;;0.77;;
79583;SDS011;69053;57.338;18.700;2023-08-07T15:01:06;2.13;;;0.47;;
79583;SDS011;69053;57.338;18.700;2023-08-07T15:08:04;2.13;;;0.40;;
79583;SDS011;69053;57.338;18.700;2023-08-07T15:11:05;1.42;;;0.40;;
79583;SDS011;69053;57.338;18.700;2023-08-07T15:14:07;1.38;;;0.73;;
79583;SDS011;69053;57.338;18.700;2023-08-07T15:17:12;1.52;;;0.35;;
79583;SDS011;69053;57.338;18.700;2023-08-07T15:20:13;1.67;;;0.45;;
79583;SDS011;69053;57.338;18.700;2023-08-07T15:49:22;1.52;;;0.32;;
79583;SDS011;69053;57.338;18.700;2023-08-07T17:18:00;3.90;;;0.70;;
79583;SDS011;69053;57.338;18.700;2023-08-07T17:21:07;2.97;;;0.80;;
79583;SDS011;69053;57.338;18.700;2023-08-07T17:24:12;3.85;;;0.77;;
79583;SDS011;69053;57.338;18.700;2023-08-07T17:27:15;2.45;;;0.80;;
79583;SDS011;69053;57.338;18.700;2023-08-07T17:30:16;3.00;;;0.70;;
79583;SDS011;69053;57.338;18.700;2023-08-07T17:33:18;4.10;;;0.73;;
79583;SDS011;69053;57.338;18.700;2023-08-07T17:36:34;3.65;;;0.80;;
79583;SDS011;69053;57.338;18.700;2023-08-07T17:39:35;2.85;;;0.60;;
79583;SDS011;69053;57.338;18.700;2023-08-07T17:49:15;3.50;;;0.32;;
79583;SDS011;69053;57.338;18.700;2023-08-07T17:55:32;4.22;;;0.90;;
79583;SDS011;69053;57.338;18.700;2023-08-07T17:58:52;3.50;;;0.50;;
79583;SDS011;69053;57.338;18.700;2023-08-07T18:01:59;2.45;;;0.90;;
79583;SDS011;69053;57.338;18.700;2023-08-07T18:05:00;2.25;;;0.65;;
79583;SDS011;69053;57.338;18.700;2023-08-07T18:08:24;1.92;;;0.70;;
79583;SDS011;69053;57.338;18.700;2023-08-07T18:11:50;2.20;;;0.45;;
79583;SDS011;69053;57.338;18.700;2023-08-07T18:21:45;3.05;;;0.40;;
79583;SDS011;69053;57.338;18.700;2023-08-07T18:24:53;1.98;;;0.70;;
79583;SDS011;69053;57.338;18.700;2023-08-07T18:27:55;4.07;;;1.23;;
79583;SDS011;69053;57.338;18.700;2023-08-07T18:30:56;2.83;;;0.52;;
79583;SDS011;69053;57.338;18.700;2023-08-07T18:41:12;2.25;;;0.70;;
79583;SDS011;69053;57.338;18.700;2023-08-07T18:44:20;3.22;;;1.00;;
79583;SDS011;69053;57.338;18.700;2023-08-07T18:47:42;6.95;;;0.88;;
79583;SDS011;69053;57.338;18.700;2023-08-07T18:50:53;3.63;;;1.17;;
79583;SDS011;69053;57.338;18.700;2023-08-07T18:54:06;3.22;;;0.80;;
79583;SDS011;69053;57.338;18.700;2023-08-07T18:57:24;2.17;;;0.90;;
79583;SDS011;69053;57.338;18.700;2023-08-07T19:03:36;2.95;;;0.57;;
79583;SDS011;69053;57.338;18.700;2023-08-07T19:06:43;4.47;;;1.35;;
79583;SDS011;69053;57.338;18.700;2023-08-07T19:09:48;3.38;;;0.52;;
79583;SDS011;69053;57.338;18.700;2023-08-07T19:12:49;7.35;;;1.10;;
79583;SDS011;69053;57.338;18.700;2023-08-07T19:15:54;4.53;;;0.73;;
79583;SDS011;69053;57.338;18.700;2023-08-07T19:19:28;2.45;;;0.73;;
79583;SDS011;69053;57.338;18.700;2023-08-07T19:22:30;2.13;;;0.40;;
79583;SDS011;69053;57.338;18.700;2023-08-07T19:25:33;2.90;;;0.80;;
79583;SDS011;69053;57.338;18.700;2023-08-07T19:28:34;1.45;;;0.77;;
79583;SDS011;69053;57.338;18.700;2023-08-07T19:31:36;1.27;;;0.32;;
79583;SDS011;69053;57.338;18.700;2023-08-07T19:34:45;3.65;;;0.80;;
79583;SDS011;69053;57.338;18.700;2023-08-07T19:37:54;1.88;;;1.55;;
79583;SDS011;69053;57.338;18.700;2023-08-07T19:40:55;2.45;;;1.58;;
79583;SDS011;69053;57.338;18.700;2023-08-07T19:44:02;3.15;;;0.93;;
79583;SDS011;69053;57.338;18.700;2023-08-07T19:47:16;2.65;;;0.80;;
79583;SDS011;69053;57.338;18.700;2023-08-07T19:53:36;1.30;;;0.50;;
79583;SDS011;69053;57.338;18.700;2023-08-07T22:08:09;1.80;;;0.68;;
79583;SDS011;69053;57.338;18.700;2023-08-07T22:11:14;3.28;;;1.10;;
79583;SDS011;69053;57.338;18.700;2023-08-07T22:14:43;3.38;;;1.00;;
79583;SDS011;69053;57.338;18.700;2023-08-07T22:21:59;5.18;;;2.15;;
79583;SDS011;69053;57.338;18.700;2023-08-07T22:25:17;3.30;;;0.82;;
79583;SDS011;69053;57.338;18.700;2023-08-07T22:31:34;4.05;;;1.35;;
79583;SDS011;69053;57.338;18.700;2023-08-07T22:36:14;4.10;;;0.90;;
79583;SDS011;69053;57.338;18.700;2023-08-07T22:39:56;4.90;;;1.10;;
79583;SDS011;69053;57.338;18.700;2023-08-07T22:43:34;2.30;;;0.90;;
79583;SDS011;69053;57.338;18.700;2023-08-07T22:50:39;2.47;;;0.80;;
79583;SDS011;69053;57.338;18.700;2023-08-07T23:23:30;2.65;;;0.68;;
